Time;durP1;ratioP1;P1;durP2;ratioP2;P2;SDS_P1;SDS_P2;PMS_P1;PMS_P2;Temp;Humidity;BMP_temperature;BMP_pressure;BME280_temperature;BME280_humidity;BME280_pressure;Samples;Min_cycle;Max_cycle;Signal;HPM_P1;HPM_P2
2023/09/13 00:00:02;;;;;;;9.80;6.20;;;19.50;99.90;;;;;;5006047;28;20052;-88
2023/09/13 00:02:28;;;;;;;12.90;6.30;;;19.50;99.90;;;;;;5012600;28;20073;-88
2023/09/13 00:04:56;;;;;;;10.18;6.75;;;19.50;99.90;;;;;;5000267;28;20072;-88
2023/09/13 00:07:22;;;;;;;13.13;6.90;;;19.40;99.90;;;;;;5010738;28;20046;-87
2023/09/13 00:09:48;;;;;;;9.40;7.07;;;19.40;99.90;;;;;;5011948;28;20107;-87
2023/09/13 00:12:13;;;;;;;14.55;7.78;;;19.40;99.90;;;;;;5003182;28;20135;-88
2023/09/13 00:14:39;;;;;;;13.40;7.60;;;19.40;99.90;;;;;;5016169;28;20065;-87
2023/09/13 00:17:05;;;;;;;11.27;7.70;;;19.40;99.90;;;;;;5014359;28;20041;-88
2023/09/13 00:19:30;;;;;;;15.60;8.90;;;19.30;99.90;;;;;;5016753;28;20033;-88
2023/09/13 00:21:57;;;;;;;13.60;8.52;;;19.30;99.90;;;;;;5017809;28;20497;-87
2023/09/13 00:24:24;;;;;;;12.60;8.48;;;19.30;99.90;;;;;;5033920;28;20049;-88
2023/09/13 00:26:50;;;;;;;11.95;8.00;;;19.20;99.90;;;;;;5016540;28;20037;-87
2023/09/13 00:29:15;;;;;;;12.80;8.70;;;19.20;99.90;;;;;;5031015;28;20516;-88
2023/09/13 00:31:41;;;;;;;12.85;7.97;;;19.20;99.90;;;;;;5042642;28;20044;-88
2023/09/13 00:34:09;;;;;;;17.00;8.40;;;19.20;99.90;;;;;;5013931;28;20033;-88
2023/09/13 00:36:35;;;;;;;13.43;8.55;;;19.20;99.90;;;;;;5047119;28;20048;-87
2023/09/13 00:39:02;;;;;;;14.73;8.38;;;19.20;99.90;;;;;;5035497;28;20046;-88
2023/09/13 00:41:30;;;;;;;14.27;8.52;;;19.20;99.90;;;;;;5018763;28;20782;-87
2023/09/13 00:43:56;;;;;;;12.52;8.80;;;19.20;99.90;;;;;;5018844;28;20429;-88
2023/09/13 00:46:21;;;;;;;13.25;8.65;;;19.10;99.90;;;;;;5002139;28;20041;-87
2023/09/13 00:48:48;;;;;;;17.02;8.25;;;19.10;99.90;;;;;;5017897;28;20042;-87
2023/09/13 00:51:14;;;;;;;13.73;8.88;;;19.20;99.90;;;;;;5018400;28;20123;-87
2023/09/13 00:53:40;;;;;;;18.73;8.85;;;19.10;99.90;;;;;;5017547;28;20037;-87
2023/09/13 00:56:06;;;;;;;16.60;8.90;;;19.20;99.90;;;;;;5017233;28;20034;-88
2023/09/13 00:58:33;;;;;;;17.80;9.55;;;19.20;99.90;;;;;;5017786;28;20041;-88
2023/09/13 01:00:59;;;;;;;13.65;8.60;;;19.20;99.90;;;;;;5034885;28;20108;-88
2023/09/13 01:03:25;;;;;;;17.45;8.98;;;19.20;99.90;;;;;;5017101;28;20515;-87
2023/09/13 01:05:53;;;;;;;17.17;8.85;;;19.10;99.90;;;;;;5017617;28;20397;-87
2023/09/13 01:08:20;;;;;;;18.55;9.55;;;19.10;99.90;;;;;;5033565;28;20145;-88
2023/09/13 01:10:47;;;;;;;14.07;9.43;;;19.10;99.90;;;;;;5018708;28;20041;-86
2023/09/13 01:13:13;;;;;;;17.13;9.43;;;19.10;99.90;;;;;;5032100;28;20050;-88
2023/09/13 01:15:56;;;;;;;16.60;9.63;;;19.10;99.90;;;;;;5016957;28;20045;-87
2023/09/13 01:18:29;;;;;;;16.20;9.15;;;19.10;99.90;;;;;;5015453;28;20047;-88
2023/09/13 01:21:06;;;;;;;15.48;9.80;;;19.10;99.90;;;;;;5017842;28;20092;-87
2023/09/13 01:23:41;;;;;;;18.80;9.45;;;19.10;99.90;;;;;;5009065;28;20564;-87
2023/09/13 01:26:42;;;;;;;17.40;10.57;;;19.10;99.90;;;;;;5005397;28;20049;-87
2023/09/13 01:29:14;;;;;;;19.30;10.43;;;19.10;99.90;;;;;;4997183;28;20064;-87
2023/09/13 01:31:41;;;;;;;16.42;10.40;;;19.10;99.90;;;;;;5015933;28;20131;-88
2023/09/13 01:34:06;;;;;;;18.83;10.23;;;19.10;99.90;;;;;;4985163;28;20136;-87
2023/09/13 01:36:32;;;;;;;21.70;10.75;;;19.10;99.90;;;;;;5015690;28;20554;-87
2023/09/13 01:38:58;;;;;;;20.83;11.13;;;19.10;99.90;;;;;;5006626;28;20106;-88
2023/09/13 01:41:36;;;;;;;21.52;11.60;;;19.10;99.90;;;;;;5001851;28;20062;-88
2023/09/13 01:44:02;;;;;;;19.33;10.93;;;19.10;99.90;;;;;;5002210;28;20430;-87
2023/09/13 01:46:35;;;;;;;20.60;11.23;;;19.00;99.90;;;;;;5023741;28;20069;-87
2023/09/13 01:49:02;;;;;;;22.52;11.70;;;19.00;99.90;;;;;;5032727;28;20481;-87
2023/09/13 01:51:28;;;;;;;23.33;11.50;;;19.00;99.90;;;;;;5036402;28;20045;-87
2023/09/13 01:53:56;;;;;;;18.33;11.35;;;19.00;99.90;;;;;;5003433;28;20396;-87
2023/09/13 01:56:22;;;;;;;20.15;11.50;;;19.00;99.90;;;;;;5000275;28;20128;-87
2023/09/13 01:58:49;;;;;;;21.55;11.32;;;19.00;99.90;;;;;;4999842;28;20034;-87
2023/09/13 02:01:15;;;;;;;18.70;11.48;;;19.00;99.90;;;;;;5001336;28;20037;-87
2023/09/13 02:03:42;;;;;;;17.55;11.20;;;19.00;99.90;;;;;;5002163;28;20077;-87
2023/09/13 02:06:07;;;;;;;19.55;10.80;;;19.00;99.90;;;;;;4997423;28;20096;-87
2023/09/13 02:08:34;;;;;;;19.08;10.27;;;19.00;99.90;;;;;;5018684;28;20049;-87
2023/09/13 02:11:00;;;;;;;22.98;10.98;;;19.00;99.90;;;;;;5014234;28;20041;-87
2023/09/13 02:13:25;;;;;;;21.88;9.98;;;19.00;99.90;;;;;;4999393;28;20417;-88
2023/09/13 02:15:51;;;;;;;19.13;9.88;;;19.00;99.90;;;;;;5016137;28;20058;-88
2023/09/13 02:18:17;;;;;;;21.20;10.00;;;19.00;99.90;;;;;;5016354;28;20056;-88
2023/09/13 02:20:44;;;;;;;19.52;10.45;;;19.00;99.90;;;;;;5032153;28;20465;-88
2023/09/13 02:23:09;;;;;;;18.60;9.93;;;19.00;99.90;;;;;;5017114;28;20037;-88
2023/09/13 02:25:36;;;;;;;23.63;9.80;;;19.00;99.90;;;;;;5016985;28;20045;-87
2023/09/13 02:28:03;;;;;;;13.70;9.40;;;19.00;99.90;;;;;;5014537;28;20037;-87
2023/09/13 02:30:30;;;;;;;16.08;9.40;;;19.00;99.90;;;;;;5015335;28;20045;-87
2023/09/13 02:32:55;;;;;;;21.08;8.65;;;18.90;99.90;;;;;;5017046;28;20048;-87
2023/09/13 02:35:21;;;;;;;22.33;8.38;;;18.90;99.90;;;;;;5016364;28;20400;-87
2023/09/13 02:37:48;;;;;;;19.63;8.43;;;18.90;99.90;;;;;;4999839;28;20041;-88
2023/09/13 02:40:13;;;;;;;17.10;8.35;;;18.90;99.90;;;;;;5015134;28;20045;-87
2023/09/13 02:42:39;;;;;;;16.65;8.20;;;18.90;99.90;;;;;;4996016;28;20049;-87
2023/09/13 02:45:06;;;;;;;14.02;7.28;;;18.80;99.90;;;;;;5010288;28;20041;-87
2023/09/13 02:47:31;;;;;;;14.60;7.65;;;18.80;99.90;;;;;;5029775;28;20454;-86
2023/09/13 02:49:57;;;;;;;15.18;6.90;;;18.80;99.90;;;;;;5036741;28;20041;-87
2023/09/13 02:52:31;;;;;;;16.30;6.60;;;18.80;99.90;;;;;;5021981;28;20045;-87
2023/09/13 02:55:00;;;;;;;16.15;6.93;;;18.80;99.90;;;;;;5029663;28;20498;-87
2023/09/13 02:57:26;;;;;;;18.85;6.90;;;18.90;99.90;;;;;;5031342;28;20044;-87
2023/09/13 02:59:53;;;;;;;14.07;6.30;;;18.90;99.90;;;;;;5020262;28;20484;-88
2023/09/13 03:02:20;;;;;;;13.18;6.30;;;18.90;99.90;;;;;;5036941;28;20183;-87
2023/09/13 03:04:49;;;;;;;16.25;5.90;;;18.80;99.90;;;;;;5020239;28;20045;-87
2023/09/13 03:07:15;;;;;;;11.75;5.78;;;18.80;99.90;;;;;;5019556;28;20103;-87
2023/09/13 03:09:41;;;;;;;16.52;6.88;;;18.80;99.90;;;;;;5020205;28;20101;-86
2023/09/13 03:12:06;;;;;;;15.20;5.65;;;18.80;99.90;;;;;;5019106;28;20041;-88
2023/09/13 03:14:33;;;;;;;13.88;6.30;;;18.70;99.90;;;;;;5020062;28;20033;-87
2023/09/13 03:16:59;;;;;;;15.27;6.38;;;18.80;99.90;;;;;;5027413;28;20060;-87
2023/09/13 03:19:24;;;;;;;11.50;5.65;;;18.70;99.90;;;;;;5021509;28;20493;-87
2023/09/13 03:21:50;;;;;;;13.60;5.68;;;18.70;99.90;;;;;;5019808;28;20038;-87
2023/09/13 03:24:16;;;;;;;14.73;5.43;;;18.70;99.90;;;;;;5002798;28;20114;-87
2023/09/13 03:26:41;;;;;;;12.05;5.72;;;18.70;99.90;;;;;;5019912;28;20045;-87
2023/09/13 03:29:07;;;;;;;18.35;5.68;;;18.70;99.90;;;;;;5003307;28;20482;-87
2023/09/13 03:31:35;;;;;;;14.35;5.47;;;18.70;99.90;;;;;;5008541;28;20378;-87
2023/09/13 03:34:01;;;;;;;13.00;5.65;;;18.70;99.90;;;;;;5008802;28;20045;-87
2023/09/13 03:36:28;;;;;;;11.68;5.22;;;18.60;99.90;;;;;;5041288;28;20042;-87
2023/09/13 03:38:54;;;;;;;17.58;6.35;;;18.60;99.90;;;;;;5033249;28;20064;-87
2023/09/13 03:41:21;;;;;;;12.30;5.25;;;18.60;99.90;;;;;;5000995;28;20397;-87
2023/09/13 03:43:49;;;;;;;16.52;5.78;;;18.50;99.90;;;;;;5066992;28;20038;-87
2023/09/13 03:46:15;;;;;;;12.88;6.00;;;18.50;99.90;;;;;;5048750;28;20045;-87
2023/09/13 03:48:40;;;;;;;15.20;6.22;;;18.60;99.90;;;;;;5011103;28;20041;-87
2023/09/13 03:51:07;;;;;;;16.75;5.82;;;18.60;99.90;;;;;;4998925;28;20482;-87
2023/09/13 03:53:33;;;;;;;16.33;5.97;;;18.50;99.90;;;;;;5019469;28;20510;-87
2023/09/13 03:56:00;;;;;;;16.30;6.18;;;18.50;99.90;;;;;;5019131;28;20068;-88
2023/09/13 03:58:26;;;;;;;15.43;5.75;;;18.50;99.90;;;;;;5019136;28;20068;-88
2023/09/13 04:00:55;;;;;;;17.70;5.68;;;18.50;99.90;;;;;;5050016;28;20438;-87
2023/09/13 04:03:22;;;;;;;12.68;5.28;;;18.50;99.90;;;;;;5018691;28;20037;-88
2023/09/13 04:05:47;;;;;;;15.25;5.63;;;18.50;99.90;;;;;;5029223;28;20033;-88
2023/09/13 04:08:13;;;;;;;16.48;6.05;;;18.40;99.90;;;;;;5019216;28;20056;-88
2023/09/13 04:10:39;;;;;;;14.25;5.03;;;18.40;99.90;;;;;;5018143;28;20045;-87
2023/09/13 04:13:05;;;;;;;15.38;5.28;;;18.40;99.90;;;;;;5051442;28;20037;-87
2023/09/13 04:15:31;;;;;;;14.32;5.70;;;18.30;99.90;;;;;;5018114;28;20406;-88
2023/09/13 04:17:57;;;;;;;11.75;5.05;;;18.30;99.90;;;;;;5017364;28;20041;-87
2023/09/13 04:20:23;;;;;;;15.13;5.70;;;18.20;99.90;;;;;;5006982;28;20040;-88
2023/09/13 04:22:49;;;;;;;13.75;5.22;;;18.20;99.90;;;;;;5028326;28;20171;-88
2023/09/13 04:25:15;;;;;;;13.90;5.15;;;18.10;99.90;;;;;;5013588;28;20490;-87
2023/09/13 04:27:45;;;;;;;12.88;4.75;;;18.10;99.90;;;;;;5006361;28;20045;-87
2023/09/13 04:30:11;;;;;;;11.93;4.78;;;18.00;99.90;;;;;;5017548;28;20049;-88
2023/09/13 04:32:38;;;;;;;13.45;4.90;;;18.00;99.90;;;;;;5018079;28;20049;-88
2023/09/13 04:35:04;;;;;;;14.18;4.95;;;17.90;99.90;;;;;;5016484;28;20124;-88
2023/09/13 04:37:30;;;;;;;15.68;5.05;;;17.90;99.90;;;;;;5016350;28;20042;-87
2023/09/13 04:40:00;;;;;;;13.00;5.05;;;17.90;99.90;;;;;;5033216;28;20041;-87
2023/09/13 04:42:26;;;;;;;14.80;5.75;;;18.00;99.90;;;;;;5016718;28;20481;-86
2023/09/13 04:44:51;;;;;;;17.33;5.22;;;17.90;99.90;;;;;;5001777;28;20116;-87
2023/09/13 04:47:18;;;;;;;8.50;3.78;;;17.90;99.90;;;;;;5028447;28;20045;-87
2023/09/13 04:49:43;;;;;;;5.25;2.92;;;17.90;99.90;;;;;;5028246;28;20037;-87
2023/09/13 04:52:10;;;;;;;5.18;3.00;;;17.90;99.90;;;;;;5021930;28;20039;-87
2023/09/13 04:54:36;;;;;;;10.55;3.63;;;17.70;99.90;;;;;;5002504;28;20038;-87
2023/09/13 04:57:04;;;;;;;12.55;3.72;;;17.70;99.90;;;;;;5015763;28;20613;-93
2023/09/13 04:59:42;;;;;;;28.42;6.03;;;17.70;99.90;;;;;;5018665;28;20040;-90
2023/09/13 05:02:11;;;;;;;15.02;3.90;;;17.70;99.90;;;;;;5017078;28;20401;-91
2023/09/13 05:04:37;;;;;;;12.38;4.45;;;17.60;99.90;;;;;;5017668;28;20041;-90
2023/09/13 05:07:03;;;;;;;7.30;3.15;;;17.60;99.90;;;;;;5015595;28;20565;-91
2023/09/13 05:09:28;;;;;;;5.53;2.53;;;17.60;99.90;;;;;;5017669;28;20130;-91
2023/09/13 05:11:54;;;;;;;4.55;1.58;;;17.60;99.90;;;;;;5017513;28;20069;-90
2023/09/13 05:14:20;;;;;;;2.70;1.40;;;17.50;99.90;;;;;;5001654;28;20136;-91
2023/09/13 05:16:46;;;;;;;5.10;1.00;;;17.50;99.90;;;;;;5022696;28;20103;-91
2023/09/13 05:19:11;;;;;;;6.18;1.30;;;17.50;99.90;;;;;;5017251;28;20136;-90
2023/09/13 05:21:38;;;;;;;2.72;1.05;;;17.40;99.90;;;;;;5023420;28;20033;-92
2023/09/13 05:24:04;;;;;;;3.60;1.33;;;17.40;99.90;;;;;;4998906;28;20034;-91
2023/09/13 05:26:29;;;;;;;4.47;1.45;;;17.30;99.90;;;;;;5013757;28;20042;-91
2023/09/13 05:28:55;;;;;;;3.78;1.02;;;17.30;99.90;;;;;;5014424;28;20042;-92
2023/09/13 05:31:21;;;;;;;3.90;1.50;;;17.30;99.90;;;;;;4981570;28;20046;-91
2023/09/13 05:33:47;;;;;;;3.88;1.52;;;17.30;99.90;;;;;;5016674;28;20049;-91
2023/09/13 05:36:13;;;;;;;6.15;1.60;;;17.10;99.90;;;;;;5018182;28;20046;-90
2023/09/13 05:38:40;;;;;;;7.55;2.10;;;16.80;99.90;;;;;;5016061;28;20396;-89
2023/09/13 05:41:09;;;;;;;5.97;1.85;;;16.40;99.90;;;;;;5004800;28;21060;-91
2023/09/13 05:43:40;;;;;;;4.60;1.70;;;16.10;99.90;;;;;;5032956;28;20045;-90
2023/09/13 05:46:07;;;;;;;5.20;1.60;;;15.80;99.90;;;;;;5017594;28;20041;-90
2023/09/13 05:48:34;;;;;;;7.28;2.42;;;15.70;99.90;;;;;;5017491;28;20049;-91
2023/09/13 05:50:59;;;;;;;10.93;1.90;;;15.60;99.90;;;;;;5001219;28;20084;-91
2023/09/13 05:53:25;;;;;;;5.03;1.58;;;15.50;99.90;;;;;;5017139;28;20045;-88
2023/09/13 05:55:51;;;;;;;6.72;2.03;;;15.40;99.90;;;;;;5034214;28;20045;-89
2023/09/13 05:58:17;;;;;;;7.90;2.45;;;15.40;99.90;;;;;;5018437;28;20041;-92
2023/09/13 06:00:47;;;;;;;9.85;1.83;;;15.30;99.90;;;;;;5018520;28;20076;-90
2023/09/13 06:03:13;;;;;;;7.05;1.77;;;15.40;99.90;;;;;;5035277;28;20037;-89
2023/09/13 06:05:39;;;;;;;7.65;2.03;;;15.30;99.90;;;;;;5017648;28;20037;-90
2023/09/13 06:08:05;;;;;;;6.50;1.92;;;15.30;99.90;;;;;;5033085;28;20409;-90
2023/09/13 06:10:31;;;;;;;6.32;1.50;;;15.30;99.90;;;;;;5018449;28;20045;-91
2023/09/13 06:12:56;;;;;;;7.43;2.08;;;15.30;99.90;;;;;;5011491;28;20044;-91
2023/09/13 06:15:22;;;;;;;8.45;1.58;;;15.30;99.90;;;;;;5024407;28;20045;-92
2023/09/13 06:17:48;;;;;;;7.00;1.95;;;15.30;99.90;;;;;;5018373;28;20045;-91
2023/09/13 06:20:14;;;;;;;4.88;1.42;;;15.40;99.90;;;;;;5021228;28;20037;-92
2023/09/13 06:22:40;;;;;;;4.20;2.13;;;15.40;99.90;;;;;;5019479;28;20033;-93
2023/09/13 06:25:06;;;;;;;6.15;1.60;;;15.40;99.90;;;;;;5018166;28;20071;-92
2023/09/13 06:27:32;;;;;;;6.57;1.63;;;15.30;99.90;;;;;;5017438;28;20036;-91
2023/09/13 06:29:57;;;;;;;5.57;1.60;;;15.30;99.90;;;;;;5019291;28;20045;-93
2023/09/13 06:32:23;;;;;;;1.98;1.40;;;15.30;99.90;;;;;;5019927;28;20041;-91
2023/09/13 06:34:53;;;;;;;7.18;1.90;;;15.30;99.90;;;;;;5019642;28;20056;-93
2023/09/13 06:37:19;;;;;;;4.78;1.63;;;15.30;99.90;;;;;;5020415;28;20042;-92
2023/09/13 06:39:45;;;;;;;4.72;1.92;;;15.40;99.90;;;;;;5018050;28;20060;-89
2023/09/13 06:42:12;;;;;;;5.38;1.70;;;15.30;99.90;;;;;;5009444;28;20500;-88
2023/09/13 06:44:38;;;;;;;3.47;1.52;;;15.30;99.90;;;;;;5016985;28;20037;-89
2023/09/13 06:47:04;;;;;;;7.07;1.88;;;15.40;99.90;;;;;;4999294;28;20414;-88
2023/09/13 06:49:29;;;;;;;6.88;1.55;;;15.40;99.90;;;;;;5016663;28;20096;-89
2023/09/13 06:51:55;;;;;;;4.47;1.65;;;15.30;99.90;;;;;;4998223;28;20049;-88
2023/09/13 06:54:21;;;;;;;4.15;1.70;;;15.30;99.90;;;;;;5032189;28;20096;-90
2023/09/13 06:56:46;;;;;;;4.88;1.80;;;15.30;99.90;;;;;;5025251;28;20041;-88
2023/09/13 06:59:12;;;;;;;5.53;2.38;;;15.20;99.90;;;;;;5018046;28;20072;-90
2023/09/13 07:01:38;;;;;;;8.60;2.50;;;15.20;99.90;;;;;;4999862;28;20148;-89
2023/09/13 07:04:04;;;;;;;5.07;2.15;;;15.20;99.90;;;;;;5016403;28;20029;-89
2023/09/13 07:06:30;;;;;;;9.00;2.22;;;15.10;99.90;;;;;;5017340;28;20049;-92
2023/09/13 07:08:56;;;;;;;10.68;2.50;;;15.10;99.90;;;;;;5017737;28;20041;-91
2023/09/13 07:11:22;;;;;;;9.68;2.33;;;15.20;99.90;;;;;;5035029;28;20080;-92
2023/09/13 07:13:49;;;;;;;10.68;2.90;;;15.20;99.90;;;;;;5017823;28;20038;-91
2023/09/13 07:16:15;;;;;;;9.10;2.78;;;15.20;99.90;;;;;;5010774;28;20057;-90
2023/09/13 07:18:40;;;;;;;12.27;3.20;;;15.10;99.90;;;;;;5039340;28;20140;-90
2023/09/13 07:21:06;;;;;;;11.02;2.95;;;15.20;99.90;;;;;;5018627;28;20073;-90
2023/09/13 07:23:33;;;;;;;9.75;3.05;;;15.20;99.90;;;;;;5014659;28;20041;-91
2023/09/13 07:25:59;;;;;;;12.35;3.10;;;15.20;99.90;;;;;;5016696;28;20037;-92
2023/09/13 07:28:26;;;;;;;10.50;3.17;;;15.30;99.90;;;;;;5016685;28;20045;-92
2023/09/13 07:30:51;;;;;;;9.65;3.42;;;15.30;99.90;;;;;;5019321;28;20037;-92
2023/09/13 07:33:17;;;;;;;11.48;3.50;;;15.30;99.90;;;;;;5019752;28;20132;-92
2023/09/13 07:35:44;;;;;;;13.10;3.00;;;14.60;99.90;;;;;;5022127;28;20113;-91
2023/09/13 07:38:12;;;;;;;9.55;3.22;;;15.40;99.90;;;;;;5023452;28;20044;-91
2023/09/13 07:40:39;;;;;;;13.07;3.28;;;15.30;99.90;;;;;;5023957;28;20037;-92
2023/09/13 07:43:08;;;;;;;15.40;3.35;;;15.40;99.90;;;;;;5022861;28;20033;-91
2023/09/13 07:45:34;;;;;;;13.88;3.10;;;15.40;99.90;;;;;;5022143;28;20175;-91
2023/09/13 07:48:02;;;;;;;13.25;3.60;;;15.50;99.90;;;;;;5022212;28;20033;-92
2023/09/13 07:50:33;;;;;;;15.18;3.22;;;15.60;99.90;;;;;;5021005;28;20092;-92
2023/09/13 07:52:59;;;;;;;12.82;3.65;;;15.60;99.90;;;;;;5020034;28;20075;-91
2023/09/13 07:55:25;;;;;;;16.58;3.03;;;15.70;99.90;;;;;;5022185;28;20087;-89
2023/09/13 07:57:52;;;;;;;14.38;3.35;;;15.70;99.90;;;;;;5022185;28;20037;-91
2023/09/13 08:00:18;;;;;;;12.52;2.92;;;15.70;99.90;;;;;;5022147;28;20043;-93
2023/09/13 08:02:46;;;;;;;13.55;3.50;;;15.70;99.90;;;;;;5005339;28;20482;-89
2023/09/13 08:05:12;;;;;;;13.65;3.45;;;15.70;99.90;;;;;;4986279;28;20046;-89
2023/09/13 08:07:38;;;;;;;9.85;3.13;;;15.80;99.90;;;;;;5002369;28;20107;-87
2023/09/13 08:10:04;;;;;;;12.45;3.60;;;15.80;99.90;;;;;;5040733;28;20041;-88
2023/09/13 08:12:30;;;;;;;16.08;3.85;;;16.00;99.90;;;;;;5021115;28;20049;-85
2023/09/13 08:14:56;;;;;;;13.40;3.45;;;16.20;99.90;;;;;;5037115;28;20139;-87
2023/09/13 08:17:22;;;;;;;18.35;3.47;;;16.30;99.90;;;;;;5013589;28;20569;-88
2023/09/13 08:19:49;;;;;;;20.38;3.63;;;16.30;99.90;;;;;;5021680;28;20041;-88
2023/09/13 08:22:15;;;;;;;10.50;3.45;;;16.30;99.90;;;;;;5021386;28;20481;-88
2023/09/13 08:24:41;;;;;;;10.45;3.47;;;16.30;99.90;;;;;;5021593;28;20045;-88
2023/09/13 08:27:06;;;;;;;19.73;4.13;;;16.30;99.90;;;;;;5020506;28;20405;-89
2023/09/13 08:29:33;;;;;;;20.77;3.40;;;16.20;99.90;;;;;;5036806;28;20037;-87
2023/09/13 08:31:59;;;;;;;16.88;3.42;;;16.20;99.90;;;;;;5021454;28;20045;-89
2023/09/13 08:34:25;;;;;;;14.88;3.67;;;16.20;99.90;;;;;;5030415;28;20049;-89
2023/09/13 08:36:53;;;;;;;19.85;4.10;;;16.20;99.90;;;;;;5049011;28;20029;-87
2023/09/13 08:39:19;;;;;;;12.15;3.22;;;16.20;99.90;;;;;;5036155;28;20042;-89
2023/09/13 08:41:50;;;;;;;16.50;4.00;;;16.20;99.90;;;;;;5051331;28;20107;-90
2023/09/13 08:44:22;;;;;;;10.80;2.90;;;16.30;99.90;;;;;;5002977;28;20038;-90
2023/09/13 08:46:55;;;;;;;9.27;3.10;;;16.30;99.90;;;;;;5014398;28;20076;-89
2023/09/13 08:49:22;;;;;;;11.82;3.30;;;16.40;99.90;;;;;;5021828;28;20046;-90
2023/09/13 08:51:50;;;;;;;10.82;3.00;;;16.40;99.90;;;;;;5022956;28;20073;-90
2023/09/13 08:54:16;;;;;;;10.27;3.13;;;16.50;99.90;;;;;;5020975;28;20132;-90
2023/09/13 08:56:42;;;;;;;8.50;2.72;;;16.50;99.90;;;;;;5020976;28;20140;-91
2023/09/13 08:59:17;;;;;;;11.15;3.40;;;16.50;99.90;;;;;;5032552;28;20041;-91
2023/09/13 09:01:51;;;;;;;9.80;3.13;;;16.60;99.90;;;;;;5020242;28;20040;-89
2023/09/13 09:04:18;;;;;;;11.95;3.67;;;16.60;99.90;;;;;;5030715;28;20048;-89
2023/09/13 09:06:45;;;;;;;10.57;2.97;;;16.60;99.90;;;;;;5036888;28;20046;-89
2023/09/13 09:09:12;;;;;;;9.85;2.80;;;16.60;99.90;;;;;;5063735;28;20128;-89
2023/09/13 09:11:41;;;;;;;13.52;2.80;;;16.70;99.90;;;;;;5023241;28;20077;-89
2023/09/13 09:14:08;;;;;;;12.60;2.70;;;16.70;99.90;;;;;;5020668;28;20049;-88
2023/09/13 09:16:37;;;;;;;9.18;2.90;;;16.80;99.90;;;;;;5020071;28;20136;-90
2023/09/13 09:19:05;;;;;;;9.25;2.38;;;16.80;99.90;;;;;;5021502;28;20037;-90
2023/09/13 09:21:33;;;;;;;7.00;2.13;;;16.90;99.90;;;;;;5018777;28;20557;-90
2023/09/13 09:23:59;;;;;;;11.65;2.50;;;16.90;99.90;;;;;;5035601;28;20057;-89
2023/09/13 09:26:25;;;;;;;7.88;2.40;;;17.00;99.90;;;;;;5019280;28;20038;-89
2023/09/13 09:28:51;;;;;;;6.32;2.13;;;17.00;99.90;;;;;;5021973;28;20496;-90
2023/09/13 09:31:19;;;;;;;7.88;1.92;;;17.00;99.90;;;;;;5051881;28;20046;-89
2023/09/13 09:33:46;;;;;;;10.73;2.80;;;17.10;99.90;;;;;;5042269;28;20037;-89
2023/09/13 09:36:13;;;;;;;7.75;2.53;;;17.00;99.90;;;;;;5021766;28;20037;-89
2023/09/13 09:38:43;;;;;;;6.32;2.42;;;17.00;99.90;;;;;;5000575;28;20052;-89
2023/09/13 09:41:09;;;;;;;7.85;2.03;;;17.00;99.90;;;;;;5025756;28;20082;-89
2023/09/13 09:43:36;;;;;;;9.45;2.20;;;17.10;99.90;;;;;;5018911;28;20038;-87
2023/09/13 09:46:02;;;;;;;8.65;2.75;;;17.20;99.90;;;;;;5013272;28;20037;-89
2023/09/13 09:48:28;;;;;;;7.50;2.03;;;17.30;99.90;;;;;;5017956;28;20052;-89
2023/09/13 09:50:54;;;;;;;7.78;2.47;;;17.30;99.90;;;;;;5017771;28;20041;-88
2023/09/13 09:53:22;;;;;;;10.95;2.40;;;17.30;99.90;;;;;;5028869;28;20041;-89
2023/09/13 09:55:48;;;;;;;6.18;2.85;;;17.30;99.90;;;;;;5017857;28;20049;-88
2023/09/13 09:58:15;;;;;;;11.73;2.60;;;17.30;99.90;;;;;;5018096;28;20037;-89
2023/09/13 10:00:52;;;;;;;7.60;2.40;;;17.30;99.90;;;;;;5033506;28;20037;-90
2023/09/13 10:03:19;;;;;;;10.68;2.20;;;17.40;99.90;;;;;;5009649;28;20049;-89
2023/09/13 10:06:03;;;;;;;10.40;3.00;;;17.40;99.90;;;;;;5034205;28;20037;-89
2023/09/13 10:08:49;;;;;;;10.55;2.40;;;17.60;99.90;;;;;;5032244;28;20107;-89
2023/09/13 10:11:16;;;;;;;;;;;17.70;99.90;;;;;;5016578;28;20061;-90
2023/09/13 10:13:46;;;;;;;9.18;2.50;;;17.80;99.90;;;;;;5033817;28;19924;-89
2023/09/13 10:16:14;;;;;;;11.18;2.40;;;17.80;99.90;;;;;;5020992;28;20050;-88
2023/09/13 10:18:49;;;;;;;6.65;2.42;;;17.90;99.90;;;;;;5023060;28;20080;-89
2023/09/13 10:21:20;;;;;;;9.80;2.58;;;17.90;99.90;;;;;;5018985;28;20041;-87
2023/09/13 10:23:52;;;;;;;4.32;1.98;;;17.80;99.90;;;;;;5015001;28;20051;-89
2023/09/13 10:26:20;;;;;;;5.75;2.33;;;17.70;99.90;;;;;;5028580;28;20363;-89
2023/09/13 10:28:49;;;;;;;4.65;2.05;;;17.40;99.90;;;;;;5047130;28;20042;-88
2023/09/13 10:31:30;;;;;;;5.53;1.90;;;17.20;99.90;;;;;;5014614;28;20103;-89
2023/09/13 10:33:59;;;;;;;6.38;2.13;;;17.00;99.90;;;;;;5034396;28;20093;-88
2023/09/13 10:36:31;;;;;;;7.85;2.50;;;16.80;99.90;;;;;;5019367;28;20072;-88
2023/09/13 10:39:15;;;;;;;6.45;2.38;;;16.70;99.90;;;;;;5017181;28;20040;-88
2023/09/13 10:42:00;;;;;;;11.55;2.70;;;16.60;99.90;;;;;;5018736;28;20045;-90
2023/09/13 10:44:26;;;;;;;9.95;2.72;;;16.50;99.90;;;;;;5017271;28;20105;-88
2023/09/13 10:46:52;;;;;;;9.50;2.60;;;16.50;99.90;;;;;;5017258;28;20041;-88
2023/09/13 10:49:18;;;;;;;8.25;2.80;;;16.50;99.90;;;;;;5017790;28;20113;-88
2023/09/13 10:51:46;;;;;;;7.55;2.58;;;16.50;99.90;;;;;;4984963;28;20073;-89
2023/09/13 10:54:14;;;;;;;9.32;2.95;;;16.60;99.90;;;;;;5019264;28;20401;-89
2023/09/13 10:56:40;;;;;;;10.38;3.10;;;16.60;99.90;;;;;;5028918;28;20121;-89
2023/09/13 10:59:07;;;;;;;9.02;2.83;;;16.60;99.90;;;;;;5018032;28;20039;-90
2023/09/13 11:01:35;;;;;;;9.60;3.47;;;16.60;99.90;;;;;;5017783;28;20042;-90
2023/09/13 11:04:01;;;;;;;11.00;3.45;;;16.70;99.90;;;;;;5021889;28;20069;-90
2023/09/13 11:06:28;;;;;;;10.50;3.08;;;16.60;99.90;;;;;;5004332;28;20413;-87
2023/09/13 11:08:54;;;;;;;8.48;3.03;;;16.70;99.90;;;;;;5036366;28;20103;-89
2023/09/13 11:11:21;;;;;;;11.43;2.92;;;16.80;99.90;;;;;;5017597;28;20045;-89
2023/09/13 11:13:50;;;;;;;7.75;2.80;;;16.90;99.90;;;;;;5014609;28;20034;-90
2023/09/13 11:16:17;;;;;;;10.85;2.90;;;17.00;99.90;;;;;;5034866;28;20409;-89
2023/09/13 11:18:50;;;;;;;10.23;3.35;;;17.20;99.90;;;;;;5034187;28;20096;-90
2023/09/13 11:21:21;;;;;;;9.05;2.92;;;17.40;99.90;;;;;;5019248;28;20041;-91
2023/09/13 11:23:52;;;;;;;8.60;3.22;;;17.40;99.90;;;;;;5017934;28;20037;-89
2023/09/13 11:26:42;;;;;;;11.10;3.15;;;17.50;99.90;;;;;;5025591;28;20107;-89
2023/09/13 11:29:28;;;;;;;9.95;3.08;;;17.70;99.90;;;;;;5031036;28;20481;-90
2023/09/13 11:32:03;;;;;;;10.10;3.10;;;17.70;99.90;;;;;;5035285;28;20132;-89
2023/09/13 11:34:30;;;;;;;;;;;17.80;99.90;;;;;;5025589;28;20416;-89
2023/09/13 11:37:07;;;;;;;6.78;2.80;;;17.90;99.90;;;;;;5026993;28;19921;-90
2023/09/13 11:39:33;;;;;;;9.88;3.00;;;18.00;99.90;;;;;;5017872;28;20056;-89
2023/09/13 11:41:59;;;;;;;7.97;2.85;;;18.00;99.90;;;;;;5027910;28;20034;-89
2023/09/13 11:44:26;;;;;;;10.10;2.58;;;18.10;99.90;;;;;;5021693;28;20115;-90
2023/09/13 11:46:53;;;;;;;9.02;2.80;;;18.20;99.90;;;;;;5020684;28;20065;-89
2023/09/13 11:49:24;;;;;;;9.55;3.35;;;18.20;99.90;;;;;;5014012;28;20116;-89
2023/09/13 11:51:53;;;;;;;8.55;2.70;;;18.30;99.90;;;;;;5024618;28;20034;-89
2023/09/13 11:54:20;;;;;;;10.45;2.65;;;18.40;99.90;;;;;;5033098;28;20076;-89
2023/09/13 11:56:48;;;;;;;9.77;3.20;;;18.40;99.90;;;;;;5037923;28;20045;-90
2023/09/13 11:59:14;;;;;;;7.93;2.72;;;18.50;99.90;;;;;;5029591;28;20049;-88
2023/09/13 12:01:45;;;;;;;8.20;2.83;;;18.50;99.90;;;;;;5028172;28;20055;-90
2023/09/13 12:04:11;;;;;;;6.80;3.20;;;18.50;99.90;;;;;;5022411;28;20068;-89
2023/09/13 12:06:48;;;;;;;8.55;3.33;;;18.50;99.90;;;;;;5042245;28;20049;-88
2023/09/13 12:09:19;;;;;;;8.02;3.03;;;18.60;99.90;;;;;;5030996;28;20409;-89
2023/09/13 12:11:49;;;;;;;9.85;3.35;;;18.60;99.90;;;;;;5043032;28;20037;-90
2023/09/13 12:14:15;;;;;;;7.85;2.97;;;18.60;99.90;;;;;;5036640;28;20179;-89
2023/09/13 12:16:42;;;;;;;6.75;3.22;;;18.70;99.90;;;;;;5001223;28;20053;-89
2023/09/13 12:19:11;;;;;;;5.85;3.20;;;18.70;99.90;;;;;;5003707;28;20042;-89
2023/09/13 12:21:41;;;;;;;6.93;2.97;;;18.80;99.90;;;;;;5016539;28;20045;-89
2023/09/13 12:24:08;;;;;;;7.80;3.47;;;18.80;99.90;;;;;;5021690;28;20072;-90
2023/09/13 12:26:34;;;;;;;8.23;3.00;;;18.80;99.90;;;;;;5018971;28;20038;-90
2023/09/13 12:29:00;;;;;;;5.68;2.88;;;18.80;99.90;;;;;;5018474;28;20428;-90
2023/09/13 12:31:26;;;;;;;7.43;3.08;;;18.80;99.90;;;;;;5026868;28;20509;-90
2023/09/13 12:33:52;;;;;;;6.88;3.00;;;18.90;99.90;;;;;;5017599;28;20105;-89
2023/09/13 12:36:18;;;;;;;8.25;3.10;;;18.90;99.90;;;;;;5012535;28;20039;-89
2023/09/13 12:38:44;;;;;;;6.78;3.10;;;18.80;99.90;;;;;;5023874;28;20470;-89
2023/09/13 12:41:12;;;;;;;5.43;2.75;;;18.80;99.90;;;;;;5022711;28;20040;-89